createdAt,value
2022-11-30T00:00:21.944Z,32.88
2022-11-30T00:02:54.045Z,31.38
2022-11-30T00:05:21.063Z,31.13
2022-11-30T00:07:47.677Z,33.38
2022-11-30T00:10:14.292Z,31.95
2022-11-30T00:12:43.719Z,33.95
2022-11-30T00:15:14.043Z,34.38
2022-11-30T00:17:41.336Z,32.22
2022-11-30T00:20:08.690Z,34.70
2022-11-30T00:22:35.491Z,32.83
2022-11-30T00:25:04.616Z,32.38
2022-11-30T00:27:32.438Z,32.38
2022-11-30T00:29:59.290Z,32.95
2022-11-30T00:32:27.341Z,33.05
2022-11-30T00:34:54.035Z,32.20
2022-11-30T00:37:20.791Z,31.15
2022-11-30T00:39:47.379Z,32.05
2022-11-30T00:42:14.000Z,31.60
2022-11-30T00:44:40.559Z,30.17
2022-11-30T00:47:07.269Z,32.58
2022-11-30T00:49:36.686Z,29.30
2022-11-30T00:52:04.002Z,29.42
2022-11-30T00:54:30.551Z,30.42
2022-11-30T00:56:57.144Z,28.98
2022-11-30T00:59:23.684Z,28.88
2022-11-30T01:01:50.285Z,29.13
2022-11-30T01:04:16.853Z,30.92
2022-11-30T01:06:43.414Z,28.38
2022-11-30T01:09:10.042Z,29.10
2022-11-30T01:11:36.631Z,30.13
2022-11-30T01:14:03.389Z,30.05
2022-11-30T01:16:32.237Z,30.38
2022-11-30T01:18:59.027Z,32.38
2022-11-30T01:21:27.486Z,31.73
2022-11-30T01:23:54.638Z,30.58
2022-11-30T01:26:21.986Z,31.20
2022-11-30T01:28:55.416Z,31.25
2022-11-30T01:31:23.863Z,34.03
2022-11-30T01:33:52.102Z,33.88
2022-11-30T01:36:21.654Z,31.80
2022-11-30T01:38:50.672Z,32.08
2022-11-30T01:41:31.931Z,31.63
2022-11-30T01:44:20.350Z,31.80
2022-11-30T01:47:13.408Z,32.97
2022-11-30T01:49:43.361Z,33.63
2022-11-30T01:52:13.697Z,32.50
2022-11-30T01:54:46.467Z,31.08
2022-11-30T01:57:21.188Z,31.75
2022-11-30T01:59:47.762Z,32.78
2022-11-30T02:02:14.466Z,34.58
2022-11-30T02:04:41.340Z,33.47
2022-11-30T02:07:08.412Z,34.53
2022-11-30T02:09:40.125Z,32.83
2022-11-30T02:12:07.012Z,35.78
2022-11-30T02:14:46.931Z,33.75
2022-11-30T02:17:36.716Z,33.15
2022-11-30T02:20:28.334Z,35.95
2022-11-30T02:23:03.785Z,34.45
2022-11-30T02:25:48.118Z,35.20
2022-11-30T02:28:42.350Z,33.85
2022-11-30T02:31:10.809Z,33.75
2022-11-30T02:33:37.445Z,33.05
2022-11-30T02:36:04.271Z,33.20
2022-11-30T02:38:30.901Z,33.67
2022-11-30T02:40:57.837Z,32.80
2022-11-30T02:43:25.155Z,32.83
2022-11-30T02:46:00.659Z,32.00
2022-11-30T02:48:37.858Z,32.47
2022-11-30T02:51:04.753Z,31.52
2022-11-30T02:53:31.324Z,31.92
2022-11-30T02:55:57.866Z,30.00
2022-11-30T02:58:24.429Z,29.70
2022-11-30T03:00:51.041Z,31.33
2022-11-30T03:03:17.655Z,29.98
2022-11-30T03:05:44.220Z,30.30
2022-11-30T03:08:10.783Z,29.55
2022-11-30T03:10:37.339Z,29.63
2022-11-30T03:13:03.921Z,29.05
2022-11-30T03:15:30.656Z,29.77
2022-11-30T03:17:57.229Z,29.73
2022-11-30T03:20:23.779Z,29.25
2022-11-30T03:22:50.362Z,31.55
2022-11-30T03:25:16.971Z,29.27
2022-11-30T03:27:43.527Z,28.85
2022-11-30T03:30:11.049Z,28.58
2022-11-30T03:32:37.665Z,28.67
2022-11-30T03:35:04.478Z,29.13
2022-11-30T03:37:31.032Z,27.00
2022-11-30T03:39:58.525Z,27.05
2022-11-30T03:42:25.336Z,28.67
2022-11-30T03:44:51.874Z,29.40
2022-11-30T03:47:18.498Z,27.27
2022-11-30T03:49:45.030Z,27.45
2022-11-30T03:52:11.614Z,26.50
2022-11-30T03:54:38.150Z,28.13
2022-11-30T03:57:04.733Z,27.88
2022-11-30T03:59:31.278Z,27.70
2022-11-30T04:01:57.895Z,30.45
2022-11-30T04:04:24.615Z,28.02
2022-11-30T04:06:51.179Z,27.67
2022-11-30T04:09:19.034Z,27.95
2022-11-30T04:11:45.609Z,27.65
2022-11-30T04:14:12.251Z,29.27
2022-11-30T04:16:38.820Z,29.25
2022-11-30T04:19:05.368Z,28.40
2022-11-30T04:21:31.933Z,28.45
2022-11-30T04:23:58.493Z,29.20
2022-11-30T04:26:25.031Z,29.67
2022-11-30T04:28:51.604Z,29.70
2022-11-30T04:31:18.187Z,28.23
2022-11-30T04:33:44.782Z,29.20
2022-11-30T04:36:19.638Z,27.45
2022-11-30T04:38:46.557Z,26.45
2022-11-30T04:41:13.161Z,28.52
2022-11-30T04:43:39.742Z,28.48
2022-11-30T04:46:06.361Z,27.08
2022-11-30T04:48:33.199Z,27.95
2022-11-30T04:51:04.199Z,26.33
2022-11-30T04:53:30.775Z,27.60
2022-11-30T04:55:57.380Z,26.90
2022-11-30T04:58:23.992Z,25.95
2022-11-30T05:00:53.276Z,25.63
2022-11-30T05:03:19.829Z,24.33
2022-11-30T05:05:46.370Z,25.02
2022-11-30T05:08:12.924Z,23.60
2022-11-30T05:10:39.484Z,21.83
2022-11-30T05:13:06.046Z,23.75
2022-11-30T05:15:33.094Z,23.92
2022-11-30T05:18:00.927Z,23.83
2022-11-30T05:20:28.732Z,24.00
2022-11-30T05:22:55.369Z,25.08
2022-11-30T05:25:22.029Z,23.90
2022-11-30T05:27:48.596Z,25.00
2022-11-30T05:30:15.337Z,24.50
2022-11-30T05:32:41.944Z,26.27
2022-11-30T05:35:09.084Z,24.40
2022-11-30T05:37:35.663Z,24.17
2022-11-30T05:40:02.275Z,23.58
2022-11-30T05:42:28.867Z,24.60
2022-11-30T05:44:55.722Z,22.98
2022-11-30T05:47:22.281Z,23.38
2022-11-30T05:49:48.831Z,23.65
2022-11-30T05:52:15.404Z,24.58
2022-11-30T05:54:41.978Z,23.83
2022-11-30T05:57:08.536Z,24.65
2022-11-30T05:59:35.076Z,23.45
2022-11-30T06:02:01.762Z,23.90
2022-11-30T06:04:28.366Z,24.50
2022-11-30T06:06:57.633Z,24.58
2022-11-30T06:09:24.323Z,23.80
2022-11-30T06:11:51.012Z,24.67
2022-11-30T06:14:17.835Z,24.85
2022-11-30T06:16:45.138Z,26.50
2022-11-30T06:19:11.753Z,25.70
2022-11-30T06:21:38.384Z,24.00
2022-11-30T06:24:05.173Z,25.13
2022-11-30T06:26:31.727Z,25.27
2022-11-30T06:28:58.310Z,23.40
2022-11-30T06:31:24.895Z,24.45
2022-11-30T06:33:51.543Z,23.60
2022-11-30T06:36:22.982Z,23.55
2022-11-30T06:38:49.852Z,23.38
2022-11-30T06:41:16.611Z,23.17
2022-11-30T06:43:43.268Z,23.67
2022-11-30T06:46:09.965Z,21.65
2022-11-30T06:48:36.620Z,22.45
2022-11-30T06:51:07.788Z,22.85
2022-11-30T06:53:34.609Z,21.15
2022-11-30T06:56:10.060Z,22.80
2022-11-30T06:58:41.316Z,22.67
2022-11-30T07:01:09.231Z,22.38
2022-11-30T07:03:36.142Z,22.27
2022-11-30T07:06:07.287Z,20.85
2022-11-30T07:08:33.847Z,22.30
2022-11-30T07:11:00.477Z,21.48
2022-11-30T07:13:27.031Z,22.02
2022-11-30T07:15:53.615Z,21.77
2022-11-30T07:18:20.192Z,21.35
2022-11-30T07:20:46.751Z,21.77
2022-11-30T07:23:32.009Z,21.75
2022-11-30T07:26:09.459Z,27.33
2022-11-30T07:28:41.538Z,24.73
2022-11-30T07:31:22.717Z,21.15
2022-11-30T07:33:50.169Z,21.30
2022-11-30T07:36:18.030Z,21.27
2022-11-30T07:38:44.938Z,22.90
2022-11-30T07:41:11.613Z,21.05
2022-11-30T07:43:38.185Z,21.88
2022-11-30T07:46:05.365Z,19.30
2022-11-30T07:48:32.018Z,17.58
2022-11-30T07:51:12.297Z,17.83
2022-11-30T07:53:38.883Z,17.73
2022-11-30T07:56:06.954Z,17.85
2022-11-30T07:58:33.553Z,16.65
2022-11-30T08:01:07.524Z,16.40
2022-11-30T08:03:37.133Z,17.73
2022-11-30T08:06:15.339Z,17.23
2022-11-30T08:08:43.830Z,17.20
2022-11-30T08:11:14.070Z,17.38
2022-11-30T08:13:40.745Z,18.02
2022-11-30T08:16:15.457Z,17.63
2022-11-30T08:18:42.325Z,18.13
2022-11-30T08:21:10.440Z,17.67
2022-11-30T08:23:41.897Z,18.20
2022-11-30T08:26:11.832Z,17.73
2022-11-30T08:28:38.552Z,18.55
2022-11-30T08:31:08.190Z,18.40
2022-11-30T08:33:35.726Z,16.98
2022-11-30T08:36:11.390Z,17.88
2022-11-30T08:38:38.769Z,18.60
2022-11-30T08:41:06.120Z,18.17
2022-11-30T08:43:32.895Z,18.33
2022-11-30T08:45:59.788Z,18.63
2022-11-30T08:48:26.454Z,18.35
2022-11-30T08:50:52.984Z,17.95
2022-11-30T08:53:19.547Z,17.85
2022-11-30T08:55:58.066Z,19.55
2022-11-30T08:58:25.483Z,16.95
2022-11-30T09:03:23.683Z,18.00
2022-11-30T09:05:50.237Z,18.00
2022-11-30T09:08:16.872Z,17.42
2022-11-30T09:10:43.441Z,17.90
2022-11-30T09:13:10.043Z,17.63
2022-11-30T09:15:36.612Z,16.50
2022-11-30T09:18:03.241Z,16.85
2022-11-30T09:20:29.813Z,17.92
2022-11-30T09:22:56.399Z,16.38
2022-11-30T09:25:22.940Z,18.48
2022-11-30T09:27:49.523Z,14.77
2022-11-30T09:30:16.255Z,16.25
2022-11-30T09:32:42.854Z,15.93
2022-11-30T09:35:12.807Z,15.75
2022-11-30T09:37:40.320Z,15.30
2022-11-30T09:40:07.581Z,16.42
2022-11-30T09:42:57.762Z,15.63
2022-11-30T09:45:28.677Z,16.23
2022-11-30T09:48:23.621Z,16.80
2022-11-30T09:50:50.152Z,16.23
2022-11-30T09:53:29.707Z,17.55
2022-11-30T09:55:56.591Z,17.10
2022-11-30T09:58:28.607Z,15.55
2022-11-30T10:00:55.128Z,17.08
2022-11-30T10:03:22.875Z,15.07
2022-11-30T10:05:56.792Z,15.73
2022-11-30T10:08:38.796Z,15.13
2022-11-30T10:11:39.228Z,15.68
2022-11-30T10:14:24.533Z,15.85
2022-11-30T10:16:58.354Z,15.70
2022-11-30T10:19:43.877Z,15.45
2022-11-30T10:22:27.231Z,16.23
2022-11-30T10:27:52.637Z,16.05
2022-11-30T10:30:26.850Z,16.70
2022-11-30T10:32:55.109Z,16.65
2022-11-30T10:35:44.614Z,16.73
2022-11-30T10:38:37.190Z,16.70
2022-11-30T10:41:16.637Z,15.70
2022-11-30T10:43:48.178Z,14.60
2022-11-30T10:46:36.676Z,15.55
2022-11-30T10:49:12.416Z,14.63
2022-11-30T10:51:40.188Z,15.15
2022-11-30T10:54:18.976Z,14.60
2022-11-30T10:56:46.040Z,15.88
2022-11-30T10:59:28.029Z,15.02
2022-11-30T11:01:54.770Z,12.73
2022-11-30T11:04:23.433Z,14.23
2022-11-30T11:07:01.618Z,13.25
2022-11-30T11:09:31.363Z,13.45
2022-11-30T11:12:19.184Z,13.23
2022-11-30T11:14:45.761Z,12.38
2022-11-30T11:17:18.374Z,12.68
2022-11-30T11:19:46.503Z,13.05
2022-11-30T11:22:13.151Z,12.65
2022-11-30T11:24:39.690Z,12.25
2022-11-30T11:27:06.267Z,12.07
2022-11-30T11:29:34.510Z,13.05
2022-11-30T11:32:15.677Z,14.10
2022-11-30T11:34:47.973Z,12.45
2022-11-30T11:37:19.982Z,12.55
2022-11-30T11:39:55.459Z,14.52
2022-11-30T11:42:22.614Z,14.02
2022-11-30T11:44:53.051Z,13.52
2022-11-30T11:47:27.420Z,13.20
2022-11-30T11:50:12.298Z,13.20
2022-11-30T11:52:38.920Z,12.77
2022-11-30T11:55:06.532Z,13.85
2022-11-30T11:57:57.456Z,12.18
2022-11-30T12:00:25.424Z,13.75
2022-11-30T12:03:29.704Z,13.35
2022-11-30T12:06:15.763Z,14.70
2022-11-30T12:08:55.439Z,13.52
2022-11-30T12:11:43.770Z,14.90
2022-11-30T12:14:15.194Z,15.60
2022-11-30T12:17:20.352Z,15.18
2022-11-30T12:19:52.716Z,15.40
2022-11-30T12:22:53.376Z,15.55
2022-11-30T12:25:42.439Z,14.27
2022-11-30T12:28:31.374Z,13.55
2022-11-30T12:31:10.737Z,15.18
2022-11-30T12:33:59.407Z,14.60
2022-11-30T12:36:32.042Z,13.52
2022-11-30T12:39:00.756Z,12.20
2022-11-30T12:41:33.525Z,12.13
2022-11-30T12:44:09.205Z,11.30
2022-11-30T12:46:59.925Z,11.05
2022-11-30T12:49:30.471Z,10.52
2022-11-30T12:52:33.610Z,11.73
2022-11-30T12:55:21.767Z,12.68
2022-11-30T12:57:50.960Z,13.15
2022-11-30T13:00:20.540Z,12.43
2022-11-30T13:03:05.413Z,13.07
2022-11-30T13:05:38.345Z,14.02
2022-11-30T13:08:05.862Z,13.68
2022-11-30T13:10:41.377Z,13.25
2022-11-30T13:13:12.975Z,12.48
2022-11-30T13:15:39.766Z,12.27
2022-11-30T13:18:07.093Z,11.90
2022-11-30T13:20:50.343Z,12.55
2022-11-30T13:26:26.773Z,11.85
2022-11-30T13:28:57.172Z,10.80
2022-11-30T13:31:39.260Z,11.68
2022-11-30T13:34:28.525Z,11.20
2022-11-30T13:37:17.422Z,9.63
2022-11-30T13:39:54.153Z,9.68
2022-11-30T13:42:40.776Z,8.32
2022-11-30T13:45:13.503Z,10.05
2022-11-30T13:47:42.017Z,9.60
2022-11-30T13:50:17.079Z,10.20
2022-11-30T13:52:59.057Z,10.40
2022-11-30T13:55:51.935Z,11.82
2022-11-30T13:58:19.932Z,11.00
2022-11-30T14:00:48.874Z,11.20
2022-11-30T14:03:21.503Z,11.57
2022-11-30T14:05:54.952Z,12.50
2022-11-30T14:08:21.430Z,11.38
2022-11-30T14:10:49.701Z,12.15
2022-11-30T14:13:21.119Z,12.13
2022-11-30T14:15:47.643Z,11.63
2022-11-30T14:18:20.217Z,12.45
2022-11-30T14:20:52.687Z,12.45
2022-11-30T14:23:37.122Z,12.35
2022-11-30T14:26:11.000Z,10.93
2022-11-30T14:28:45.828Z,12.02
2022-11-30T14:31:17.918Z,12.07
2022-11-30T14:34:14.813Z,12.95
2022-11-30T14:36:48.477Z,12.40
2022-11-30T14:39:27.145Z,13.57
2022-11-30T14:41:54.584Z,13.63
2022-11-30T14:44:21.116Z,14.80
2022-11-30T14:46:47.753Z,15.82
2022-11-30T14:49:19.435Z,17.05
2022-11-30T14:51:49.288Z,17.02
2022-11-30T14:54:34.815Z,17.52
2022-11-30T14:57:39.255Z,16.50
2022-11-30T15:00:06.640Z,15.15
2022-11-30T15:02:38.681Z,16.00
2022-11-30T15:05:07.085Z,16.02
2022-11-30T15:07:35.227Z,16.48
2022-11-30T15:10:19.297Z,15.02
2022-11-30T15:12:45.961Z,16.00
2022-11-30T15:15:19.715Z,16.48
2022-11-30T15:17:52.354Z,17.33
2022-11-30T15:20:46.304Z,15.77
2022-11-30T15:23:15.530Z,14.85
2022-11-30T15:25:44.468Z,15.75
2022-11-30T15:28:12.612Z,16.17
2022-11-30T15:30:40.729Z,15.57
2022-11-30T15:33:11.675Z,15.30
2022-11-30T15:35:57.234Z,16.65
2022-11-30T15:38:25.682Z,16.35
2022-11-30T15:40:55.200Z,15.95
2022-11-30T15:43:23.989Z,16.90
2022-11-30T15:45:58.311Z,16.67
2022-11-30T15:48:32.071Z,16.60
2022-11-30T15:50:59.792Z,17.35
2022-11-30T15:53:34.861Z,15.48
2022-11-30T15:56:08.738Z,16.42
2022-11-30T15:58:46.196Z,16.65
2022-11-30T16:01:14.388Z,16.45
2022-11-30T16:03:56.874Z,15.45
2022-11-30T16:06:35.774Z,16.83
2022-11-30T16:09:23.331Z,16.40
2022-11-30T16:11:53.001Z,17.00
2022-11-30T16:14:19.572Z,17.20
2022-11-30T16:16:46.769Z,17.20
2022-11-30T16:19:13.449Z,17.23
2022-11-30T16:21:40.059Z,17.60
2022-11-30T16:24:07.138Z,18.67
2022-11-30T16:26:50.411Z,18.75
2022-11-30T16:29:17.619Z,18.40
2022-11-30T16:31:44.242Z,18.45
2022-11-30T16:34:11.952Z,17.88
2022-11-30T16:36:39.112Z,17.70
2022-11-30T16:39:05.916Z,18.65
2022-11-30T16:41:32.494Z,17.88
2022-11-30T16:43:59.044Z,18.67
2022-11-30T16:46:27.512Z,18.90
2022-11-30T16:48:54.325Z,18.27
2022-11-30T16:51:29.565Z,18.58
2022-11-30T16:53:57.701Z,16.60
2022-11-30T16:56:24.353Z,16.90
2022-11-30T16:58:50.977Z,17.23
2022-11-30T17:01:21.643Z,17.63
2022-11-30T17:03:50.155Z,17.95
2022-11-30T17:06:19.011Z,14.82
2022-11-30T17:08:46.540Z,17.75
2022-11-30T17:11:24.479Z,16.45
2022-11-30T17:13:51.046Z,15.98
2022-11-30T17:16:17.825Z,16.02
2022-11-30T17:18:44.591Z,15.20
2022-11-30T17:21:19.764Z,14.88
2022-11-30T17:23:46.355Z,13.77
2022-11-30T17:26:13.325Z,12.73
2022-11-30T17:28:41.661Z,12.68
2022-11-30T17:31:09.064Z,11.25
2022-11-30T17:33:36.062Z,12.32
2022-11-30T17:36:05.375Z,12.27
2022-11-30T17:38:34.616Z,11.85
2022-11-30T17:41:04.784Z,12.23
2022-11-30T17:43:31.515Z,11.80
2022-11-30T17:45:58.085Z,12.40
2022-11-30T17:48:24.693Z,12.77
2022-11-30T17:50:52.526Z,13.70
2022-11-30T17:53:19.281Z,12.32
2022-11-30T17:55:46.770Z,13.00
2022-11-30T17:58:13.410Z,12.10
2022-11-30T18:00:39.994Z,12.48
2022-11-30T18:03:06.673Z,12.77
2022-11-30T18:05:33.358Z,11.80
2022-11-30T18:08:00.537Z,11.98
2022-11-30T18:10:27.255Z,11.45
2022-11-30T18:12:53.889Z,11.85
2022-11-30T18:15:20.480Z,12.02
2022-11-30T18:17:47.041Z,13.00
2022-11-30T18:20:13.632Z,13.55
2022-11-30T18:22:40.282Z,13.10
2022-11-30T18:25:07.289Z,14.52
2022-11-30T18:27:33.934Z,13.48
2022-11-30T18:30:00.459Z,14.32
2022-11-30T18:32:27.010Z,14.75
2022-11-30T18:34:53.587Z,13.95
2022-11-30T18:37:20.143Z,13.52
2022-11-30T18:39:46.690Z,13.68
2022-11-30T18:42:13.453Z,14.20
2022-11-30T18:44:40.083Z,13.32
2022-11-30T18:47:06.675Z,14.27
2022-11-30T18:49:33.200Z,13.55
2022-11-30T18:51:59.808Z,13.73
2022-11-30T18:54:26.598Z,13.63
2022-11-30T18:56:53.213Z,13.55
2022-11-30T18:59:19.824Z,12.82
2022-11-30T19:01:46.645Z,14.77
2022-11-30T19:04:13.395Z,14.70
2022-11-30T19:06:41.123Z,14.65
2022-11-30T19:09:10.086Z,14.77
2022-11-30T19:11:37.323Z,15.07
2022-11-30T19:14:04.200Z,15.90
2022-11-30T19:16:31.756Z,13.82
2022-11-30T19:19:03.709Z,13.98
2022-11-30T19:21:30.406Z,14.35
2022-11-30T19:23:57.936Z,13.65
2022-11-30T19:26:24.578Z,15.80
2022-11-30T19:28:51.150Z,13.98
2022-11-30T19:31:18.933Z,14.13
2022-11-30T19:33:47.632Z,13.68
2022-11-30T19:36:19.234Z,13.95
2022-11-30T19:38:45.813Z,14.23
2022-11-30T19:41:15.040Z,13.63
2022-11-30T19:43:42.872Z,13.05
2022-11-30T19:46:14.053Z,12.18
2022-11-30T19:48:41.186Z,13.25
2022-11-30T19:51:13.397Z,12.63
2022-11-30T19:53:43.641Z,13.30
2022-11-30T19:56:14.833Z,13.82
2022-11-30T19:58:42.485Z,12.70
2022-11-30T20:01:12.854Z,12.27
2022-11-30T20:03:39.583Z,12.00
2022-11-30T20:06:06.383Z,12.05
2022-11-30T20:08:32.963Z,13.45
2022-11-30T20:10:59.533Z,12.73
2022-11-30T20:13:26.407Z,11.68
2022-11-30T20:15:53.016Z,11.70
2022-11-30T20:18:19.584Z,13.23
2022-11-30T20:20:46.163Z,12.30
2022-11-30T20:23:12.759Z,12.40
2022-11-30T20:25:39.349Z,12.45
2022-11-30T20:28:09.643Z,12.77
2022-11-30T20:30:38.955Z,11.57
2022-11-30T20:33:05.552Z,11.15
2022-11-30T20:35:32.119Z,12.13
2022-11-30T20:37:58.690Z,11.32
2022-11-30T20:40:25.239Z,11.63
2022-11-30T20:42:52.708Z,12.23
2022-11-30T20:45:19.247Z,11.60
2022-11-30T20:47:45.818Z,11.35
2022-11-30T20:50:13.228Z,11.05
2022-11-30T20:52:39.804Z,11.27
2022-11-30T20:55:06.891Z,10.27
2022-11-30T20:57:33.463Z,10.93
2022-11-30T21:00:00.068Z,10.82
2022-11-30T21:02:26.689Z,9.73
2022-11-30T21:04:53.354Z,10.27
2022-11-30T21:07:19.997Z,10.15
2022-11-30T21:09:46.714Z,10.48
2022-11-30T21:12:13.287Z,10.23
2022-11-30T21:14:39.958Z,10.55
2022-11-30T21:17:06.595Z,9.30
2022-11-30T21:19:33.721Z,11.18
2022-11-30T21:22:00.364Z,11.82
2022-11-30T21:24:26.921Z,11.32
2022-11-30T21:26:53.505Z,11.20
2022-11-30T21:29:20.227Z,11.32
2022-11-30T21:31:47.287Z,11.50
2022-11-30T21:34:14.017Z,11.00
2022-11-30T21:36:40.619Z,10.95
2022-11-30T21:39:08.043Z,9.90
2022-11-30T21:41:36.427Z,11.43
2022-11-30T21:44:03.914Z,11.60
2022-11-30T21:46:30.562Z,11.60
2022-11-30T21:48:57.310Z,11.35
2022-11-30T21:51:25.634Z,10.63
2022-11-30T21:53:54.524Z,12.00
2022-11-30T21:56:23.092Z,12.25
2022-11-30T21:58:50.301Z,11.52
2022-11-30T22:01:24.925Z,13.00
2022-11-30T22:03:53.968Z,13.00
2022-11-30T22:06:20.735Z,12.98
2022-11-30T22:08:47.335Z,12.80
2022-11-30T22:11:23.819Z,11.80
2022-11-30T22:13:52.059Z,12.30
2022-11-30T22:16:19.081Z,13.25
2022-11-30T22:18:46.108Z,13.93
2022-11-30T22:21:14.836Z,13.98
2022-11-30T22:23:43.654Z,13.13
2022-11-30T22:26:16.046Z,14.13
2022-11-30T22:28:44.348Z,13.85
2022-11-30T22:31:13.356Z,14.70
2022-11-30T22:33:41.244Z,14.30
2022-11-30T22:36:08.827Z,15.30
2022-11-30T22:38:35.434Z,14.52
2022-11-30T22:41:10.579Z,15.23
2022-11-30T22:43:37.170Z,15.27
2022-11-30T22:46:07.659Z,15.13
2022-11-30T22:48:34.595Z,15.85
2022-11-30T22:51:08.514Z,15.93
2022-11-30T22:53:36.219Z,16.25
2022-11-30T22:56:07.931Z,16.30
2022-11-30T22:58:34.863Z,15.68
2022-11-30T23:01:16.594Z,17.20
2022-11-30T23:03:43.785Z,15.70
2022-11-30T23:06:11.926Z,16.77
2022-11-30T23:08:38.982Z,16.63
2022-11-30T23:11:09.656Z,16.80
2022-11-30T23:13:36.597Z,18.23
2022-11-30T23:16:04.827Z,16.70
2022-11-30T23:18:37.611Z,17.08
2022-11-30T23:21:09.396Z,17.23
2022-11-30T23:23:35.983Z,17.60
2022-11-30T23:26:13.187Z,18.05
2022-11-30T23:28:41.271Z,17.15
2022-11-30T23:31:33.891Z,17.73
2022-11-30T23:33:59.344Z,17.92
2022-11-30T23:36:25.979Z,18.13
2022-11-30T23:38:57.859Z,18.40
2022-11-30T23:41:25.164Z,18.02
2022-11-30T23:43:51.862Z,17.02
2022-11-30T23:46:18.501Z,18.02
2022-11-30T23:48:45.132Z,19.77
2022-11-30T23:51:11.876Z,18.77
2022-11-30T23:53:38.683Z,18.50
2022-11-30T23:56:07.280Z,19.02
2022-11-30T23:58:34.280Z,18.63
